Selfridge Angb Airport Mount Clemens US
ICAO: KMTC
IATA: MTC
Category: Medium
Scheduled Services: No

Elevation: 580 ft
TransAlt. 18000 ft.

Airport Communications:
927 ARW OPS:31.42
APP:119.6
ATIS:125.325
CLNC DEL:119
DEP:119.6
GND:128.3
USCG DETROIT AIR:38.18
WING COMD POST:148.525
PMSV/METRO:34.25
PTD:134.85
TWR:120.15

KMTC Zoom In..

If you have problems with the map follow the link
https://www.worldairports.se/pages/airport.php?
ICAO=KMTC

Runways:

(A) RW 01 length 9000 ft width 150 ft
ILS 110.10 / hdg 8

(B) RW 19 length 9000 ft width 150 ft
ILS 110.10 / hdg 188

Location; KMTC
Day. 20 / Time. 08.56 Zulu
* Altimeter: 30.38
* Temperature: -09° c. -15.8°f.
* Wind from: 310° Speed 07 kn.
Dewpoint: -12° c.
Visibility: 10 Statute Miles.
Clouds: Clear (automated report).

KMTC 200856Z AUTO 31007KT 10SM CLR M09/M12 A3038 RMK AO2 SLP303 T10931117 52011 $


Wind From 310°
Speed 07 kn.

 
 
jpsmedia worldairports.se 2020   terms of use